createdAt,value
2018-11-04T00:00:20.752Z,19.00
2018-11-04T00:01:25.317Z,19.20
2018-11-04T00:02:29.821Z,18.82
2018-11-04T00:03:34.440Z,18.85
2018-11-04T00:04:39.022Z,19.27
2018-11-04T00:05:43.517Z,18.82
2018-11-04T00:06:48.119Z,19.65
2018-11-04T00:07:52.995Z,19.05
2018-11-04T00:08:57.535Z,19.35
2018-11-04T00:10:02.058Z,18.07
2018-11-04T00:11:07.107Z,18.52
2018-11-04T00:12:11.645Z,18.40
2018-11-04T00:13:16.201Z,18.80
2018-11-04T00:14:20.733Z,18.87
2018-11-04T00:15:25.285Z,19.75
2018-11-04T00:16:29.802Z,20.90
2018-11-04T00:17:34.357Z,19.80
2018-11-04T00:18:38.876Z,18.70
2018-11-04T00:19:43.389Z,20.02
2018-11-04T00:20:47.896Z,19.60
2018-11-04T00:21:52.568Z,17.80
2018-11-04T00:22:57.076Z,18.32
2018-11-04T00:24:01.649Z,18.17
2018-11-04T00:25:06.641Z,17.85
2018-11-04T00:26:11.103Z,17.17
2018-11-04T00:27:15.609Z,16.93
2018-11-04T00:28:20.150Z,18.02
2018-11-04T00:29:24.645Z,17.57
2018-11-04T00:30:29.104Z,17.95
2018-11-04T00:31:33.641Z,17.62
2018-11-04T00:32:38.169Z,17.32
2018-11-04T00:33:42.649Z,16.62
2018-11-04T00:34:47.166Z,17.92
2018-11-04T00:35:51.806Z,17.20
2018-11-04T00:36:56.339Z,17.75
2018-11-04T00:38:00.831Z,18.95
2018-11-04T00:39:07.399Z,19.07
2018-11-04T00:40:11.966Z,18.52
2018-11-04T00:41:16.525Z,17.90
2018-11-04T00:42:21.030Z,18.12
2018-11-04T00:43:25.552Z,18.55
2018-11-04T00:44:30.097Z,17.85
2018-11-04T00:45:34.661Z,18.00
2018-11-04T00:46:39.130Z,17.67
2018-11-04T00:47:43.644Z,19.65
2018-11-04T00:48:48.208Z,18.30
2018-11-04T00:49:52.715Z,17.80
2018-11-04T00:50:57.231Z,18.35
2018-11-04T00:52:01.899Z,19.27
2018-11-04T00:53:06.846Z,18.50
2018-11-04T00:54:11.444Z,18.35
2018-11-04T00:55:15.983Z,17.30
2018-11-04T00:56:20.449Z,18.57
2018-11-04T00:57:24.925Z,18.32
2018-11-04T00:58:29.380Z,18.25
2018-11-04T00:59:33.942Z,19.20
2018-11-04T01:00:38.426Z,18.27
2018-11-04T01:01:42.896Z,18.32
2018-11-04T01:02:48.481Z,18.55
2018-11-04T01:03:52.946Z,19.12
2018-11-04T01:04:57.516Z,18.80
2018-11-04T01:06:01.972Z,20.50
2018-11-04T01:07:06.787Z,19.20
2018-11-04T01:08:11.330Z,19.90
2018-11-04T01:09:16.377Z,19.55
2018-11-04T01:10:20.892Z,19.75
2018-11-04T01:11:25.360Z,19.10
2018-11-04T01:12:29.918Z,19.85
2018-11-04T01:13:34.362Z,21.00
2018-11-04T01:14:38.893Z,21.50
2018-11-04T01:15:43.473Z,20.70
2018-11-04T01:16:47.947Z,19.98
2018-11-04T01:17:52.460Z,20.40
2018-11-04T01:18:56.907Z,21.45
2018-11-04T01:20:01.375Z,21.05
2018-11-04T01:21:06.244Z,21.20
2018-11-04T01:22:10.759Z,20.72
2018-11-04T01:23:15.296Z,21.57
2018-11-04T01:24:19.761Z,21.85
2018-11-04T01:25:24.227Z,22.32
2018-11-04T01:26:28.755Z,21.12
2018-11-04T01:27:33.591Z,21.85
2018-11-04T01:28:38.097Z,21.73
2018-11-04T01:29:42.648Z,22.10
2018-11-04T01:30:47.152Z,22.45
2018-11-04T01:31:51.694Z,21.97
2018-11-04T01:32:56.225Z,20.82
2018-11-04T01:34:00.745Z,21.70
2018-11-04T01:35:06.017Z,21.80
2018-11-04T01:36:10.532Z,21.77
2018-11-04T01:37:15.033Z,21.35
2018-11-04T01:38:19.627Z,22.85
2018-11-04T01:39:24.228Z,20.60
2018-11-04T01:40:28.768Z,21.35
2018-11-04T01:41:33.281Z,21.07
2018-11-04T01:42:38.186Z,21.87
2018-11-04T01:43:42.708Z,21.42
2018-11-04T01:44:47.240Z,21.93
2018-11-04T01:45:51.746Z,21.82
2018-11-04T01:46:56.262Z,22.73
2018-11-04T01:48:00.897Z,21.93
2018-11-04T01:49:05.839Z,22.00
2018-11-04T01:50:13.551Z,22.60
2018-11-04T01:51:18.073Z,22.20
2018-11-04T01:52:22.597Z,22.00
2018-11-04T01:53:27.050Z,21.55
2018-11-04T01:54:31.595Z,22.02
2018-11-04T01:55:36.101Z,21.20
2018-11-04T01:56:40.704Z,21.52
2018-11-04T01:57:45.447Z,20.92
2018-11-04T01:58:49.951Z,20.85
2018-11-04T01:59:54.433Z,21.52
2018-11-04T02:00:58.880Z,20.55
2018-11-04T02:02:03.401Z,21.93
2018-11-04T02:03:07.949Z,20.48
2018-11-04T02:04:12.461Z,22.02
2018-11-04T02:05:17.037Z,21.15
2018-11-04T02:06:21.540Z,21.62
2018-11-04T02:07:26.081Z,21.77
2018-11-04T02:08:30.642Z,21.35
2018-11-04T02:09:35.186Z,22.02
2018-11-04T02:10:39.765Z,22.27
2018-11-04T02:11:44.357Z,20.72
2018-11-04T02:12:48.869Z,23.32
2018-11-04T02:13:53.387Z,22.15
2018-11-04T02:14:57.920Z,23.18
2018-11-04T02:16:02.436Z,21.57
2018-11-04T02:17:06.968Z,22.85
2018-11-04T02:18:11.509Z,23.12
2018-11-04T02:19:16.006Z,21.60
2018-11-04T02:20:20.587Z,22.35
2018-11-04T02:21:25.124Z,21.15
2018-11-04T02:22:29.581Z,21.80
2018-11-04T02:23:34.055Z,20.60
2018-11-04T02:24:38.498Z,22.00
2018-11-04T02:25:42.942Z,21.37
2018-11-04T02:26:47.424Z,21.25
2018-11-04T02:27:51.969Z,22.15
2018-11-04T02:28:56.456Z,21.80
2018-11-04T02:30:01.024Z,22.22
2018-11-04T02:31:06.231Z,21.80
2018-11-04T02:33:13.521Z,21.93
2018-11-04T02:34:17.964Z,21.23
2018-11-04T02:35:22.518Z,21.33
2018-11-04T02:36:27.025Z,20.88
2018-11-04T02:37:31.529Z,21.55
2018-11-04T02:38:36.061Z,21.97
2018-11-04T02:39:40.607Z,20.68
2018-11-04T02:40:45.150Z,20.72
2018-11-04T02:41:49.678Z,20.85
2018-11-04T02:42:54.214Z,21.07
2018-11-04T02:43:58.736Z,20.68
2018-11-04T02:45:03.326Z,21.10
2018-11-04T02:46:08.207Z,22.30
2018-11-04T02:47:12.673Z,22.35
2018-11-04T02:48:17.249Z,22.00
2018-11-04T02:49:21.753Z,21.07
2018-11-04T02:50:26.320Z,22.40
2018-11-04T02:51:31.081Z,22.37
2018-11-04T02:52:35.683Z,21.10
2018-11-04T02:53:40.134Z,21.77
2018-11-04T02:54:44.583Z,22.90
2018-11-04T02:55:49.041Z,22.20
2018-11-04T02:56:54.502Z,23.20
2018-11-04T02:57:59.030Z,22.95
2018-11-04T02:59:03.561Z,22.15
2018-11-04T03:00:10.132Z,21.65
2018-11-04T03:01:14.791Z,22.65
2018-11-04T03:02:19.299Z,22.55
2018-11-04T03:03:23.835Z,21.97
2018-11-04T03:04:28.369Z,22.80
2018-11-04T03:05:32.800Z,21.77
2018-11-04T03:06:37.335Z,22.52
2018-11-04T03:07:42.775Z,22.45
2018-11-04T03:08:47.334Z,22.58
2018-11-04T03:09:51.860Z,23.65
2018-11-04T03:10:56.376Z,24.02
2018-11-04T03:12:00.844Z,22.85
2018-11-04T03:13:05.458Z,22.13
2018-11-04T03:14:10.265Z,22.20
2018-11-04T03:15:14.834Z,21.68
2018-11-04T03:16:19.433Z,21.75
2018-11-04T03:17:23.924Z,20.60
2018-11-04T03:18:28.444Z,22.95
2018-11-04T03:19:32.973Z,22.75
2018-11-04T03:20:37.416Z,21.30
2018-11-04T03:21:41.987Z,21.97
2018-11-04T03:22:46.429Z,21.75
2018-11-04T03:23:50.871Z,21.40
2018-11-04T03:24:55.328Z,22.20
2018-11-04T03:25:59.838Z,22.73
2018-11-04T03:27:04.351Z,22.30
2018-11-04T03:28:09.963Z,22.62
2018-11-04T03:29:14.479Z,23.15
2018-11-04T03:30:19.012Z,23.07
2018-11-04T03:31:23.478Z,23.45
2018-11-04T03:32:28.013Z,20.95
2018-11-04T03:33:32.455Z,22.62
2018-11-04T03:34:36.965Z,23.40
2018-11-04T03:35:41.520Z,22.90
2018-11-04T03:36:46.083Z,22.45
2018-11-04T03:37:50.667Z,22.37
2018-11-04T03:38:55.183Z,23.05
2018-11-04T03:39:59.641Z,22.52
2018-11-04T03:41:04.257Z,21.35
2018-11-04T03:42:08.771Z,20.85
2018-11-04T03:43:13.300Z,21.20
2018-11-04T03:44:17.815Z,21.87
2018-11-04T03:45:22.636Z,21.23
2018-11-04T03:46:27.195Z,21.70
2018-11-04T03:47:31.743Z,22.00
2018-11-04T03:48:36.345Z,21.05
2018-11-04T03:49:40.880Z,20.97
2018-11-04T03:50:45.401Z,20.45
2018-11-04T03:51:49.943Z,20.25
2018-11-04T03:52:54.460Z,22.10
2018-11-04T03:53:58.931Z,20.32
2018-11-04T03:55:03.430Z,20.50
2018-11-04T03:56:07.969Z,19.57
2018-11-04T03:57:12.501Z,20.02
2018-11-04T03:58:17.115Z,20.72
2018-11-04T03:59:21.608Z,20.05
2018-11-04T04:00:26.127Z,19.95
2018-11-04T04:01:30.646Z,19.20
2018-11-04T04:02:35.189Z,19.65
2018-11-04T04:03:39.645Z,20.05
2018-11-04T04:04:44.173Z,19.55
2018-11-04T04:05:48.661Z,19.35
2018-11-04T04:06:53.279Z,19.20
2018-11-04T04:07:58.080Z,19.45
2018-11-04T04:09:02.615Z,19.20
2018-11-04T04:10:08.556Z,19.23
2018-11-04T04:11:13.173Z,20.43
2018-11-04T04:12:17.617Z,19.60
2018-11-04T04:13:22.204Z,18.48
2018-11-04T04:14:26.713Z,20.77
2018-11-04T04:15:31.154Z,20.80
2018-11-04T04:16:35.714Z,19.23
2018-11-04T04:17:40.554Z,20.37
2018-11-04T04:18:45.057Z,20.05
2018-11-04T04:19:49.507Z,19.35
2018-11-04T04:21:11.067Z,20.10
2018-11-04T04:22:15.585Z,18.82
2018-11-04T04:23:20.097Z,20.48
2018-11-04T04:24:24.606Z,20.17
2018-11-04T04:25:29.149Z,20.52
2018-11-04T04:26:33.583Z,19.50
2018-11-04T04:27:38.126Z,19.60
2018-11-04T04:28:42.565Z,20.43
2018-11-04T04:29:47.100Z,19.15
2018-11-04T04:30:51.559Z,18.32
2018-11-04T04:31:56.000Z,20.02
2018-11-04T04:33:00.576Z,18.75
2018-11-04T04:34:05.242Z,19.73
2018-11-04T04:35:10.597Z,18.82
2018-11-04T04:36:15.698Z,20.02
2018-11-04T04:37:20.219Z,18.77
2018-11-04T04:38:25.294Z,20.12
2018-11-04T04:39:29.797Z,19.27
2018-11-04T04:40:34.245Z,19.70
2018-11-04T04:41:38.721Z,18.87
2018-11-04T04:42:43.189Z,19.75
2018-11-04T04:43:47.711Z,19.23
2018-11-04T04:44:52.231Z,19.37
2018-11-04T04:45:56.760Z,20.45
2018-11-04T04:47:01.291Z,20.02
2018-11-04T04:48:06.159Z,18.80
2018-11-04T04:49:10.733Z,18.67
2018-11-04T04:50:15.181Z,19.92
2018-11-04T04:51:19.720Z,18.80
2018-11-04T04:52:24.623Z,20.08
2018-11-04T04:53:29.132Z,19.02
2018-11-04T04:54:33.566Z,19.23
2018-11-04T04:55:38.023Z,19.48
2018-11-04T04:56:42.484Z,19.50
2018-11-04T04:57:46.920Z,19.75
2018-11-04T04:58:51.459Z,20.43
2018-11-04T04:59:55.973Z,20.05
2018-11-04T05:01:00.496Z,19.37
2018-11-04T05:02:05.228Z,19.55
2018-11-04T05:03:10.045Z,19.70
2018-11-04T05:04:14.522Z,20.68
2018-11-04T05:05:19.020Z,19.90
2018-11-04T05:06:23.553Z,19.52
2018-11-04T05:07:28.073Z,18.95
2018-11-04T05:08:32.599Z,19.35
2018-11-04T05:09:37.108Z,19.90
2018-11-04T05:10:41.637Z,20.50
2018-11-04T05:11:46.175Z,19.62
2018-11-04T05:12:50.718Z,20.90
2018-11-04T05:13:55.220Z,19.17
2018-11-04T05:14:59.743Z,19.73
2018-11-04T05:16:04.310Z,19.65
2018-11-04T05:17:09.249Z,20.57
2018-11-04T05:18:13.751Z,20.37
2018-11-04T05:19:18.266Z,21.10
2018-11-04T05:20:22.716Z,20.43
2018-11-04T05:21:27.335Z,21.82
2018-11-04T05:22:31.906Z,20.60
2018-11-04T05:23:36.453Z,19.80
2018-11-04T05:24:40.889Z,19.85
2018-11-04T05:25:45.413Z,19.73
2018-11-04T05:26:49.894Z,20.30
2018-11-04T05:27:54.461Z,19.27
2018-11-04T05:28:59.010Z,20.32
2018-11-04T05:30:03.657Z,19.87
2018-11-04T05:31:08.137Z,20.17
2018-11-04T05:32:12.586Z,19.98
2018-11-04T05:33:17.110Z,19.37
2018-11-04T05:34:21.609Z,20.55
2018-11-04T05:35:26.153Z,20.92
2018-11-04T05:36:30.696Z,19.00
2018-11-04T05:37:35.265Z,19.95
2018-11-04T05:38:39.818Z,20.20
2018-11-04T05:39:44.340Z,19.67
2018-11-04T05:40:48.864Z,20.30
2018-11-04T05:41:53.409Z,21.17
2018-11-04T05:42:57.910Z,20.17
2018-11-04T05:44:02.418Z,19.55
2018-11-04T05:45:07.759Z,18.45
2018-11-04T05:46:12.249Z,19.30
2018-11-04T05:47:16.775Z,19.37
2018-11-04T05:48:21.281Z,20.23
2018-11-04T05:49:25.837Z,20.05
2018-11-04T05:50:30.286Z,19.32
2018-11-04T05:51:34.794Z,20.02
2018-11-04T05:52:39.325Z,19.37
2018-11-04T05:53:43.843Z,19.17
2018-11-04T05:54:48.380Z,20.00
2018-11-04T05:55:52.898Z,20.08
2018-11-04T05:56:57.408Z,19.95
2018-11-04T05:58:01.946Z,20.65
2018-11-04T05:59:06.405Z,19.70
2018-11-04T06:00:11.438Z,18.87
2018-11-04T06:01:15.985Z,19.77
2018-11-04T06:02:20.526Z,19.95
2018-11-04T06:03:25.006Z,19.92
2018-11-04T06:04:29.584Z,18.82
2018-11-04T06:05:34.021Z,19.40
2018-11-04T06:06:38.508Z,20.05
2018-11-04T06:07:43.007Z,20.10
2018-11-04T06:08:47.549Z,20.15
2018-11-04T06:09:52.086Z,18.77
2018-11-04T06:10:56.610Z,19.25
2018-11-04T06:12:01.129Z,19.65
2018-11-04T06:13:05.654Z,19.80
2018-11-04T06:14:10.182Z,20.30
2018-11-04T06:15:14.725Z,19.73
2018-11-04T06:16:19.253Z,19.75
2018-11-04T06:17:23.780Z,20.25
2018-11-04T06:18:28.301Z,20.02
2018-11-04T06:19:32.846Z,20.95
2018-11-04T06:20:37.337Z,19.85
2018-11-04T06:21:43.239Z,19.90
2018-11-04T06:22:48.169Z,20.50
2018-11-04T06:23:52.674Z,20.27
2018-11-04T06:24:57.181Z,20.02
2018-11-04T06:26:01.735Z,19.45
2018-11-04T06:27:06.287Z,20.92
2018-11-04T06:28:10.807Z,21.12
2018-11-04T06:29:15.460Z,19.82
2018-11-04T06:30:19.920Z,19.20
2018-11-04T06:31:24.445Z,18.98
2018-11-04T06:32:28.907Z,20.08
2018-11-04T06:33:33.353Z,20.27
2018-11-04T06:34:37.967Z,20.02
2018-11-04T06:35:42.464Z,20.17
2018-11-04T06:36:47.445Z,19.55
2018-11-04T06:37:51.965Z,21.33
2018-11-04T06:38:56.604Z,20.92
2018-11-04T06:40:01.098Z,20.20
2018-11-04T06:41:05.691Z,20.95
2018-11-04T06:42:10.259Z,21.00
2018-11-04T06:43:14.776Z,21.00
2018-11-04T06:44:19.275Z,21.17
2018-11-04T06:45:23.937Z,21.93
2018-11-04T06:46:28.469Z,22.27
2018-11-04T06:47:33.082Z,22.00
2018-11-04T06:48:37.637Z,20.97
2018-11-04T06:49:42.220Z,22.05
2018-11-04T06:50:46.932Z,21.65
2018-11-04T06:51:51.482Z,22.17
2018-11-04T06:52:56.024Z,21.27
2018-11-04T06:54:00.557Z,20.92
2018-11-04T06:55:05.557Z,21.05
2018-11-04T06:56:10.112Z,21.12
2018-11-04T06:57:14.624Z,23.75
2018-11-04T06:58:19.266Z,21.48
2018-11-04T06:59:27.647Z,20.45
2018-11-04T07:00:32.688Z,22.75
2018-11-04T07:01:37.255Z,21.95
2018-11-04T07:02:41.718Z,21.50
2018-11-04T07:03:57.305Z,22.13
2018-11-04T07:05:01.843Z,21.17
2018-11-04T07:06:06.416Z,22.30
2018-11-04T07:07:10.936Z,21.85
2018-11-04T07:08:15.451Z,21.40
2018-11-04T07:09:19.985Z,22.58
2018-11-04T07:10:24.524Z,20.55
2018-11-04T07:11:29.061Z,21.37
2018-11-04T07:12:33.611Z,22.22
2018-11-04T07:13:38.130Z,20.57
2018-11-04T07:14:42.659Z,22.32
2018-11-04T07:15:47.181Z,21.20
2018-11-04T07:16:51.693Z,21.25
2018-11-04T07:17:56.281Z,21.40
2018-11-04T07:19:00.821Z,20.75
2018-11-04T07:20:06.481Z,21.07
2018-11-04T07:21:10.926Z,19.95
2018-11-04T07:22:15.398Z,21.10
2018-11-04T07:23:19.976Z,22.10
2018-11-04T07:24:24.516Z,21.62
2018-11-04T07:25:29.051Z,20.97
2018-11-04T07:26:33.689Z,20.80
2018-11-04T07:27:38.262Z,22.05
2018-11-04T07:28:42.797Z,21.00
2018-11-04T07:29:47.304Z,21.05
2018-11-04T07:30:51.826Z,21.90
2018-11-04T07:31:56.430Z,22.05
2018-11-04T07:33:00.959Z,22.02
2018-11-04T07:34:05.858Z,21.35
2018-11-04T07:35:11.150Z,21.95
2018-11-04T07:36:15.700Z,20.95
2018-11-04T07:37:20.199Z,20.30
2018-11-04T07:38:24.729Z,19.90
2018-11-04T07:39:29.248Z,21.85
2018-11-04T07:40:33.763Z,20.77
2018-11-04T07:41:38.283Z,19.75
2018-11-04T07:42:42.824Z,21.95
2018-11-04T07:43:47.343Z,21.48
2018-11-04T07:44:51.876Z,20.75
2018-11-04T07:45:56.440Z,21.68
2018-11-04T07:47:00.985Z,21.33
2018-11-04T07:48:06.225Z,20.65
2018-11-04T07:49:10.674Z,20.75
2018-11-04T07:50:15.609Z,20.37
2018-11-04T07:51:20.063Z,21.40
2018-11-04T07:52:24.605Z,20.10
2018-11-04T07:53:29.072Z,20.17
2018-11-04T07:54:33.537Z,20.20
2018-11-04T07:55:38.040Z,20.70
2018-11-04T07:56:42.582Z,20.52
2018-11-04T07:57:47.595Z,20.88
2018-11-04T07:58:52.187Z,21.45
2018-11-04T07:59:57.750Z,20.25
2018-11-04T08:01:02.549Z,20.45
2018-11-04T08:02:07.033Z,20.97
2018-11-04T08:03:11.570Z,20.95
2018-11-04T08:04:16.209Z,21.73
2018-11-04T08:05:20.683Z,20.62
2018-11-04T08:06:25.156Z,20.20
2018-11-04T08:07:29.706Z,21.30
2018-11-04T08:08:34.249Z,20.15
2018-11-04T08:09:38.828Z,20.95
2018-11-04T08:10:43.401Z,22.95
2018-11-04T08:11:47.896Z,21.82
2018-11-04T08:12:52.505Z,20.70
2018-11-04T08:13:57.082Z,21.23
2018-11-04T08:15:01.603Z,21.40
2018-11-04T08:16:06.159Z,21.95
2018-11-04T08:17:10.741Z,20.97
2018-11-04T08:18:15.423Z,21.07
2018-11-04T08:19:19.930Z,20.35
2018-11-04T08:20:24.462Z,21.10
2018-11-04T08:21:29.047Z,20.20
2018-11-04T08:22:33.545Z,20.48
2018-11-04T08:23:38.083Z,20.43
2018-11-04T08:24:42.648Z,18.40
2018-11-04T08:25:47.178Z,18.98
2018-11-04T08:26:51.740Z,20.12
2018-11-04T08:27:56.273Z,20.08
2018-11-04T08:29:00.813Z,20.50
2018-11-04T08:30:06.770Z,19.62
2018-11-04T08:31:11.344Z,19.70
2018-11-04T08:32:15.857Z,18.40
2018-11-04T08:33:20.429Z,20.00
2018-11-04T08:34:24.954Z,19.42
2018-11-04T08:35:29.482Z,19.60
2018-11-04T08:36:34.004Z,19.77
2018-11-04T08:37:38.538Z,18.98
2018-11-04T08:38:43.090Z,20.20
2018-11-04T08:39:47.674Z,19.23
2018-11-04T08:40:52.121Z,18.85
2018-11-04T08:41:56.579Z,19.73
2018-11-04T08:43:01.170Z,20.55
2018-11-04T08:44:05.747Z,19.25
2018-11-04T08:45:10.301Z,19.90
2018-11-04T08:46:14.807Z,20.40
2018-11-04T08:47:19.353Z,20.17
2018-11-04T08:48:24.054Z,18.87
2018-11-04T08:49:28.597Z,19.82
2018-11-04T08:50:33.038Z,18.73
2018-11-04T08:51:37.632Z,19.77
2018-11-04T08:52:42.314Z,18.82
2018-11-04T08:53:46.752Z,19.85
2018-11-04T08:54:51.282Z,19.52
2018-11-04T08:55:55.796Z,18.20
2018-11-04T08:57:00.283Z,19.48
2018-11-04T08:58:04.885Z,18.82
2018-11-04T08:59:09.350Z,18.85
2018-11-04T09:00:15.323Z,18.80
2018-11-04T09:01:19.793Z,20.12
2018-11-04T09:02:24.329Z,20.00
2018-11-04T09:03:28.869Z,19.00
2018-11-04T09:04:33.428Z,20.60
2018-11-04T09:05:37.885Z,18.80
2018-11-04T09:06:42.533Z,19.57
2018-11-04T09:07:47.145Z,19.55
2018-11-04T09:08:51.725Z,19.10
2018-11-04T09:09:56.173Z,19.07
2018-11-04T09:11:00.687Z,19.02
2018-11-04T09:12:05.212Z,19.42
2018-11-04T09:13:09.753Z,20.20
2018-11-04T09:14:14.314Z,19.32
2018-11-04T09:15:18.883Z,19.87
2018-11-04T09:16:23.402Z,18.60
2018-11-04T09:17:27.923Z,20.10
2018-11-04T09:18:32.460Z,18.75
2018-11-04T09:19:36.963Z,19.42
2018-11-04T09:20:41.535Z,19.20
2018-11-04T09:21:46.176Z,19.27
2018-11-04T09:22:50.629Z,18.80
2018-11-04T09:23:55.137Z,20.08
2018-11-04T09:24:59.590Z,21.10
2018-11-04T09:26:04.148Z,18.70
2018-11-04T09:27:08.726Z,19.42
2018-11-04T09:28:13.337Z,18.87
2018-11-04T09:29:17.936Z,19.20
2018-11-04T09:30:22.583Z,20.48
2018-11-04T09:31:27.162Z,20.32
2018-11-04T09:32:31.698Z,19.57
2018-11-04T09:33:36.214Z,19.55
2018-11-04T09:34:40.800Z,19.70
2018-11-04T09:35:45.513Z,20.48
2018-11-04T09:36:49.778Z,19.57
2018-11-04T09:37:54.335Z,20.17
2018-11-04T09:38:58.884Z,20.50
2018-11-04T09:40:03.532Z,20.48
2018-11-04T09:41:08.064Z,20.50
2018-11-04T09:42:12.598Z,20.35
2018-11-04T09:43:17.147Z,21.12
2018-11-04T09:44:21.690Z,19.80
2018-11-04T09:45:26.240Z,21.07
2018-11-04T09:46:31.276Z,20.65
2018-11-04T09:47:35.959Z,20.12
2018-11-04T09:48:40.581Z,20.05
2018-11-04T09:49:45.110Z,21.05
2018-11-04T09:50:49.708Z,19.85
2018-11-04T09:51:54.245Z,20.40
2018-11-04T09:52:58.710Z,19.42
2018-11-04T09:54:03.157Z,20.17
2018-11-04T09:55:08.556Z,20.27
2018-11-04T09:56:13.117Z,19.73
2018-11-04T09:57:17.701Z,20.57
2018-11-04T09:58:22.218Z,21.12
2018-11-04T09:59:26.771Z,20.65
2018-11-04T10:00:31.300Z,20.62
2018-11-04T10:01:35.846Z,19.98
2018-11-04T10:02:40.889Z,21.65
2018-11-04T10:03:45.399Z,20.37
2018-11-04T10:04:49.905Z,19.87
2018-11-04T10:05:54.417Z,20.48
2018-11-04T10:06:58.982Z,20.25
2018-11-04T10:08:03.637Z,19.55
2018-11-04T10:09:09.606Z,19.60
2018-11-04T10:10:14.904Z,20.08
2018-11-04T10:11:19.421Z,19.65
2018-11-04T10:12:23.960Z,19.42
2018-11-04T10:13:28.524Z,18.48
2018-11-04T10:14:33.043Z,19.60
2018-11-04T10:15:37.590Z,20.27
2018-11-04T10:16:42.112Z,19.32
2018-11-04T10:17:46.653Z,18.00
2018-11-04T10:18:51.392Z,19.82
2018-11-04T10:19:56.171Z,18.48
2018-11-04T10:21:00.778Z,19.00
2018-11-04T10:22:05.017Z,18.52
2018-11-04T10:23:09.555Z,17.30
2018-11-04T10:24:14.604Z,17.75
2018-11-04T10:25:19.152Z,17.95
2018-11-04T10:26:23.598Z,19.35
2018-11-04T10:27:28.142Z,18.40
2018-11-04T10:28:32.736Z,19.70
2018-11-04T10:29:37.261Z,19.75
2018-11-04T10:30:41.797Z,19.42
2018-11-04T10:31:46.330Z,18.60
2018-11-04T10:32:50.793Z,18.55
2018-11-04T10:33:55.403Z,18.45
2018-11-04T10:34:59.921Z,18.23
2018-11-04T10:36:04.411Z,16.93
2018-11-04T10:37:08.941Z,18.87
2018-11-04T10:38:13.418Z,19.23
2018-11-04T10:39:17.941Z,18.70
2018-11-04T10:40:22.507Z,18.67
2018-11-04T10:41:26.970Z,19.02
2018-11-04T10:42:31.506Z,18.17
2018-11-04T10:43:36.029Z,19.02
2018-11-04T10:44:40.558Z,18.00
2018-11-04T10:45:45.101Z,17.65
2018-11-04T10:46:49.623Z,18.40
2018-11-04T10:47:54.154Z,18.85
2018-11-04T10:48:58.689Z,17.87
2018-11-04T10:50:03.382Z,17.62
2018-11-04T10:51:07.830Z,17.17
2018-11-04T10:52:12.325Z,17.02
2018-11-04T10:53:16.844Z,17.25
2018-11-04T10:54:21.399Z,18.12
2018-11-04T10:55:26.041Z,16.82
2018-11-04T10:56:30.641Z,16.82
2018-11-04T10:57:35.204Z,17.05
2018-11-04T10:58:39.709Z,17.00
2018-11-04T10:59:44.259Z,16.50
2018-11-04T11:00:54.034Z,17.12
2018-11-04T11:01:58.851Z,15.68
2018-11-04T11:03:03.389Z,15.70
2018-11-04T11:04:07.927Z,16.23
2018-11-04T11:05:12.453Z,17.10
2018-11-04T11:06:16.945Z,17.15
2018-11-04T11:07:21.475Z,16.95
2018-11-04T11:08:26.010Z,17.15
2018-11-04T11:09:30.549Z,16.65
2018-11-04T11:10:35.117Z,17.70
2018-11-04T11:11:40.488Z,17.25
2018-11-04T11:12:44.945Z,17.23
2018-11-04T11:13:49.426Z,16.55
2018-11-04T11:14:53.997Z,17.25
2018-11-04T11:15:58.802Z,17.30
2018-11-04T11:17:03.312Z,16.90
2018-11-04T11:18:07.901Z,16.80
2018-11-04T11:19:12.443Z,16.73
2018-11-04T11:20:16.918Z,17.27
2018-11-04T11:21:21.480Z,16.73
2018-11-04T11:22:26.018Z,16.93
2018-11-04T11:23:30.664Z,17.35
2018-11-04T11:24:35.205Z,17.30
2018-11-04T11:25:39.734Z,17.90
2018-11-04T11:26:44.267Z,17.62
2018-11-04T11:27:48.812Z,17.67
2018-11-04T11:28:53.461Z,17.60
2018-11-04T11:29:58.034Z,17.12
2018-11-04T11:31:02.623Z,18.23
2018-11-04T11:32:07.186Z,17.67
2018-11-04T11:33:11.725Z,17.52
2018-11-04T11:34:16.258Z,16.77
2018-11-04T11:35:20.710Z,17.73
2018-11-04T11:36:25.231Z,18.57
2018-11-04T11:37:29.874Z,18.25
2018-11-04T11:38:34.244Z,17.95
2018-11-04T11:39:38.955Z,19.57
2018-11-04T11:40:43.441Z,17.90
2018-11-04T11:41:47.906Z,19.00
2018-11-04T11:42:52.463Z,18.60
2018-11-04T11:43:57.078Z,18.50
2018-11-04T11:45:01.630Z,18.60
2018-11-04T11:46:06.496Z,18.57
2018-11-04T11:47:11.031Z,19.05
2018-11-04T11:48:15.578Z,18.55
2018-11-04T11:49:20.077Z,18.52
2018-11-04T11:50:24.532Z,18.32
2018-11-04T11:51:29.076Z,17.87
2018-11-04T11:52:33.662Z,18.60
2018-11-04T11:53:38.206Z,18.90
2018-11-04T11:54:42.770Z,19.57
2018-11-04T11:55:47.294Z,19.85
2018-11-04T11:56:51.830Z,19.27
2018-11-04T11:57:56.350Z,18.75
2018-11-04T11:59:00.943Z,18.95
2018-11-04T12:00:07.552Z,18.20
2018-11-04T12:01:12.017Z,18.40
2018-11-04T12:02:16.570Z,18.45
2018-11-04T12:03:21.125Z,18.62
2018-11-04T12:05:00.641Z,19.73
2018-11-04T12:06:05.865Z,17.07
2018-11-04T12:07:10.545Z,19.23
2018-11-04T12:08:15.245Z,19.92
2018-11-04T12:09:19.899Z,18.25
2018-11-04T12:10:24.433Z,21.40
2018-11-04T12:11:29.010Z,19.80
2018-11-04T12:12:33.475Z,19.90
2018-11-04T12:13:37.955Z,20.85
2018-11-04T12:14:43.025Z,22.58
2018-11-04T12:15:47.584Z,28.25
2018-11-04T12:16:52.112Z,27.75
2018-11-04T12:17:56.672Z,29.23
2018-11-04T12:19:01.177Z,30.70
2018-11-04T12:20:08.462Z,35.73
2018-11-04T12:21:13.025Z,36.17
2018-11-04T12:22:17.589Z,32.70
2018-11-04T12:23:22.321Z,28.32
2018-11-04T12:24:29.058Z,28.07
2018-11-04T12:25:33.776Z,24.32
2018-11-04T12:26:38.330Z,24.02
2018-11-04T12:27:43.274Z,24.30
2018-11-04T12:28:47.790Z,21.30
2018-11-04T12:29:52.762Z,21.45
2018-11-04T12:30:57.296Z,23.20
2018-11-04T12:32:01.929Z,23.30
2018-11-04T12:33:06.422Z,22.00
2018-11-04T12:34:11.317Z,21.52
2018-11-04T12:35:15.839Z,21.62
2018-11-04T12:36:20.614Z,19.80
2018-11-04T12:37:25.087Z,20.62
2018-11-04T12:38:29.610Z,20.23
2018-11-04T12:39:34.075Z,20.60
2018-11-04T12:40:38.542Z,21.10
2018-11-04T12:41:43.082Z,18.80
2018-11-04T12:42:47.815Z,18.32
2018-11-04T12:43:52.271Z,17.98
2018-11-04T12:44:56.929Z,17.75
2018-11-04T12:46:02.398Z,18.12
2018-11-04T12:47:08.092Z,18.30
2018-11-04T12:48:12.552Z,18.35
2018-11-04T12:49:17.119Z,18.48
2018-11-04T12:50:21.578Z,18.35
2018-11-04T12:51:26.311Z,18.60
2018-11-04T12:52:30.893Z,18.23
2018-11-04T12:53:35.640Z,18.05
2018-11-04T12:54:40.468Z,17.87
2018-11-04T12:55:45.008Z,18.48
2018-11-04T12:56:49.914Z,18.40
2018-11-04T12:57:54.501Z,17.75
2018-11-04T12:59:00.022Z,16.57
2018-11-04T13:00:05.305Z,16.87
2018-11-04T13:01:09.832Z,17.55
2018-11-04T13:02:14.669Z,17.85
2018-11-04T13:03:19.223Z,17.52
2018-11-04T13:04:23.713Z,17.65
2018-11-04T13:05:28.244Z,18.10
2018-11-04T13:06:32.701Z,16.93
2018-11-04T13:07:37.194Z,17.37
2018-11-04T13:08:41.650Z,17.42
2018-11-04T13:09:46.095Z,16.45
2018-11-04T13:10:50.656Z,16.93
2018-11-04T13:11:55.413Z,16.80
2018-11-04T13:12:59.921Z,17.25
2018-11-04T13:14:04.487Z,17.17
2018-11-04T13:15:10.706Z,16.02
2018-11-04T13:16:15.230Z,16.87
2018-11-04T13:17:19.682Z,17.70
2018-11-04T13:18:24.224Z,16.52
2018-11-04T13:19:28.677Z,18.90
2018-11-04T13:20:33.195Z,17.32
2018-11-04T13:21:37.777Z,16.97
2018-11-04T13:22:42.306Z,16.45
2018-11-04T13:23:46.796Z,17.07
2018-11-04T13:24:51.242Z,17.48
2018-11-04T13:25:55.836Z,17.90
2018-11-04T13:27:00.488Z,17.82
2018-11-04T13:28:05.074Z,18.70
2018-11-04T13:29:09.648Z,17.35
2018-11-04T13:30:14.724Z,17.12
2018-11-04T13:31:19.252Z,17.62
2018-11-04T13:32:23.783Z,16.85
2018-11-04T13:33:28.343Z,18.60
2018-11-04T13:34:32.868Z,18.05
2018-11-04T13:35:37.455Z,17.60
2018-11-04T13:36:41.923Z,17.23
2018-11-04T13:37:46.498Z,17.85
2018-11-04T13:38:51.040Z,17.17
2018-11-04T13:39:55.558Z,18.15
2018-11-04T13:41:00.094Z,18.65
2018-11-04T13:42:04.982Z,17.23
2018-11-04T13:43:09.543Z,18.23
2018-11-04T13:44:14.078Z,19.17
2018-11-04T13:45:18.602Z,16.67
2018-11-04T13:46:23.133Z,17.45
2018-11-04T13:47:27.672Z,16.12
2018-11-04T13:48:32.224Z,16.65
2018-11-04T13:49:36.756Z,15.93
2018-11-04T13:50:41.325Z,16.87
2018-11-04T13:51:45.871Z,15.98
2018-11-04T13:52:50.320Z,16.02
2018-11-04T13:53:54.800Z,16.45